sensor_id;sensor_type;location;lat;lon;timestamp;pressure;altitude;pressure_sealevel;temperature;humidity
16094;BME280;8151;47.824;12.092;2022-11-20T00:01:30;95727.75;;;7.16;76.68
16094;BME280;8151;47.824;12.092;2022-11-20T00:03:59;95730.38;;;7.16;76.65
16094;BME280;8151;47.824;12.092;2022-11-20T00:06:27;95733.97;;;7.15;76.60
16094;BME280;8151;47.824;12.092;2022-11-20T00:08:58;95740.03;;;7.15;76.56
16094;BME280;8151;47.824;12.092;2022-11-20T00:11:30;95740.03;;;7.15;76.59
16094;BME280;8151;47.824;12.092;2022-11-20T00:14:01;95743.53;;;7.16;76.44
16094;BME280;8151;47.824;12.092;2022-11-20T00:16:32;95741.72;;;7.16;76.25
16094;BME280;8151;47.824;12.092;2022-11-20T00:19:01;95747.78;;;7.17;76.31
16094;BME280;8151;47.824;12.092;2022-11-20T00:21:30;95741.72;;;7.16;76.36
16094;BME280;8151;47.824;12.092;2022-11-20T00:23:58;95745.81;;;7.19;76.25
16094;BME280;8151;47.824;12.092;2022-11-20T00:26:28;95740.53;;;7.19;76.13
16094;BME280;8151;47.824;12.092;2022-11-20T00:29:00;95750.25;;;7.18;76.26
16094;BME280;8151;47.824;12.092;2022-11-20T00:31:29;95750.25;;;7.18;76.35
16094;BME280;8151;47.824;12.092;2022-11-20T00:34:00;95746.81;;;7.18;76.52
16094;BME280;8151;47.824;12.092;2022-11-20T00:36:31;95753.38;;;7.22;76.11
16094;BME280;8151;47.824;12.092;2022-11-20T00:39:00;95754.06;;;7.24;76.38
16094;BME280;8151;47.824;12.092;2022-11-20T00:41:29;95751.41;;;7.24;76.16
16094;BME280;8151;47.824;12.092;2022-11-20T00:43:58;95755.69;;;7.25;75.90
16094;BME280;8151;47.824;12.092;2022-11-20T00:46:27;95760.94;;;7.25;76.15
16094;BME280;8151;47.824;12.092;2022-11-20T00:48:56;95766.19;;;7.25;76.29
16094;BME280;8151;47.824;12.092;2022-11-20T00:51:26;95767.06;;;7.25;76.03
16094;BME280;8151;47.824;12.092;2022-11-20T00:53:56;95767.72;;;7.27;76.22
16094;BME280;8151;47.824;12.092;2022-11-20T00:56:25;95767.72;;;7.27;76.04
16094;BME280;8151;47.824;12.092;2022-11-20T00:58:54;95769.69;;;7.25;76.00
16094;BME280;8151;47.824;12.092;2022-11-20T01:01:24;95771.81;;;7.22;76.19
16094;BME280;8151;47.824;12.092;2022-11-20T01:03:56;95768.19;;;7.23;76.33
16094;BME280;8151;47.824;12.092;2022-11-20T01:06:26;95772.63;;;7.22;75.95
16094;BME280;8151;47.824;12.092;2022-11-20T01:08:57;95774.28;;;7.23;75.93
16094;BME280;8151;47.824;12.092;2022-11-20T01:11:27;95783.97;;;7.23;76.23
16094;BME280;8151;47.824;12.092;2022-11-20T01:13:57;95783.16;;;7.22;76.04
16094;BME280;8151;47.824;12.092;2022-11-20T01:16:28;95778.88;;;7.21;75.85
16094;BME280;8151;47.824;12.092;2022-11-20T01:19:00;95775.41;;;7.21;76.01
16094;BME280;8151;47.824;12.092;2022-11-20T01:21:30;95780.66;;;7.21;75.88
16094;BME280;8151;47.824;12.092;2022-11-20T01:23:59;95788.41;;;7.22;75.80
16094;BME280;8151;47.824;12.092;2022-11-20T01:26:29;95785.63;;;7.24;75.97
16094;BME280;8151;47.824;12.092;2022-11-20T01:28:58;95790.88;;;7.24;75.80
16094;BME280;8151;47.824;12.092;2022-11-20T01:31:29;95790.06;;;7.23;75.75
16094;BME280;8151;47.824;12.092;2022-11-20T01:34:00;95792.84;;;7.22;75.82
16094;BME280;8151;47.824;12.092;2022-11-20T01:36:30;95790.88;;;7.24;76.15
16094;BME280;8151;47.824;12.092;2022-11-20T01:39:01;95786.59;;;7.23;75.73
16094;BME280;8151;47.824;12.092;2022-11-20T01:41:32;95788.56;;;7.21;76.01
16094;BME280;8151;47.824;12.092;2022-11-20T01:44:21;95785.13;;;7.20;75.73
16094;BME280;8151;47.824;12.092;2022-11-20T01:46:55;95785.13;;;7.20;75.69
16094;BME280;8151;47.824;12.092;2022-11-20T01:49:33;95789.22;;;7.23;75.73
16094;BME280;8151;47.824;12.092;2022-11-20T01:52:05;95784.63;;;7.25;75.63
16094;BME280;8151;47.824;12.092;2022-11-20T01:54:39;95783.81;;;7.24;75.60
16094;BME280;8151;47.824;12.092;2022-11-20T01:57:10;95781.50;;;7.21;75.77
16094;BME280;8151;47.824;12.092;2022-11-20T01:59:44;95785.28;;;7.19;75.76
16094;BME280;8151;47.824;12.092;2022-11-20T02:02:15;95785.44;;;7.17;75.71
16094;BME280;8151;47.824;12.092;2022-11-20T02:04:46;95782.13;;;7.15;75.79
16094;BME280;8151;47.824;12.092;2022-11-20T02:07:15;95789.38;;;7.13;75.59
16094;BME280;8151;47.824;12.092;2022-11-20T02:09:44;95787.75;;;7.12;75.95
16094;BME280;8151;47.824;12.092;2022-11-20T02:12:13;95789.56;;;7.12;75.61
16094;BME280;8151;47.824;12.092;2022-11-20T02:14:55;95781.47;;;7.13;75.52
16094;BME280;8151;47.824;12.092;2022-11-20T02:17:25;95784.09;;;7.13;75.79
16094;BME280;8151;47.824;12.092;2022-11-20T02:19:55;95783.13;;;7.14;75.60
16094;BME280;8151;47.824;12.092;2022-11-20T02:22:28;95777.06;;;7.14;75.62
16094;BME280;8151;47.824;12.092;2022-11-20T02:25:01;95780.81;;;7.11;75.36
16094;BME280;8151;47.824;12.092;2022-11-20T02:27:30;95786.06;;;7.11;75.54
16094;BME280;8151;47.824;12.092;2022-11-20T02:30:01;95782.47;;;7.12;75.66
16094;BME280;8151;47.824;12.092;2022-11-20T02:32:32;95781.31;;;7.15;75.58
16094;BME280;8151;47.824;12.092;2022-11-20T02:35:07;95788.41;;;7.14;75.52
16094;BME280;8151;47.824;12.092;2022-11-20T02:37:37;95782.31;;;7.14;75.31
16094;BME280;8151;47.824;12.092;2022-11-20T02:40:09;95780.66;;;7.13;75.48
16094;BME280;8151;47.824;12.092;2022-11-20T02:42:37;95782.13;;;7.15;75.26
16094;BME280;8151;47.824;12.092;2022-11-20T02:45:07;95781.00;;;7.18;75.34
16094;BME280;8151;47.824;12.092;2022-11-20T02:47:36;95780.00;;;7.19;75.47
16094;BME280;8151;47.824;12.092;2022-11-20T02:50:05;95780.84;;;7.19;75.36
16094;BME280;8151;47.824;12.092;2022-11-20T02:52:33;95776.41;;;7.20;75.27
16094;BME280;8151;47.824;12.092;2022-11-20T02:55:02;95781.81;;;7.18;75.31
16094;BME280;8151;47.824;12.092;2022-11-20T02:57:32;95780.16;;;7.17;75.33
16094;BME280;8151;47.824;12.092;2022-11-20T03:00:00;95782.78;;;7.17;75.07
16094;BME280;8151;47.824;12.092;2022-11-20T03:02:29;95786.28;;;7.18;75.28
16094;BME280;8151;47.824;12.092;2022-11-20T03:04:58;95777.22;;;7.20;75.32
16094;BME280;8151;47.824;12.092;2022-11-20T03:07:26;95783.50;;;7.19;75.31
16094;BME280;8151;47.824;12.092;2022-11-20T03:09:54;95779.34;;;7.17;75.05
16094;BME280;8151;47.824;12.092;2022-11-20T03:12:23;95782.63;;;7.19;75.09
16094;BME280;8151;47.824;12.092;2022-11-20T03:15:03;95781.00;;;7.18;74.95
16094;BME280;8151;47.824;12.092;2022-11-20T03:17:31;95789.72;;;7.18;75.24
16094;BME280;8151;47.824;12.092;2022-11-20T03:20:00;95791.53;;;7.18;75.13
16094;BME280;8151;47.824;12.092;2022-11-20T03:22:32;95789.72;;;7.18;75.18
16094;BME280;8151;47.824;12.092;2022-11-20T03:25:00;95791.53;;;7.18;75.22
16094;BME280;8151;47.824;12.092;2022-11-20T03:27:32;95788.25;;;7.16;75.19
16094;BME280;8151;47.824;12.092;2022-11-20T03:30:00;95783.13;;;7.14;75.24
16094;BME280;8151;47.824;12.092;2022-11-20T03:32:30;95781.47;;;7.13;75.02
16094;BME280;8151;47.824;12.092;2022-11-20T03:34:59;95781.66;;;7.12;75.15
16094;BME280;8151;47.824;12.092;2022-11-20T03:37:27;95785.91;;;7.13;75.10
16094;BME280;8151;47.824;12.092;2022-11-20T03:39:55;95783.94;;;7.15;74.91
16094;BME280;8151;47.824;12.092;2022-11-20T03:42:24;95782.31;;;7.14;75.08
16094;BME280;8151;47.824;12.092;2022-11-20T03:45:09;95790.53;;;7.10;75.30
16094;BME280;8151;47.824;12.092;2022-11-20T03:47:39;95788.91;;;7.09;75.17
16094;BME280;8151;47.824;12.092;2022-11-20T03:50:09;95791.69;;;7.08;75.44
16094;BME280;8151;47.824;12.092;2022-11-20T03:52:38;95797.09;;;7.06;75.20
16094;BME280;8151;47.824;12.092;2022-11-20T03:55:07;95800.03;;;7.03;75.11
16094;BME280;8151;47.824;12.092;2022-11-20T03:57:35;95803.97;;;6.99;75.27
16094;BME280;8151;47.824;12.092;2022-11-20T04:00:04;95799.03;;;6.96;75.11
16094;BME280;8151;47.824;12.092;2022-11-20T04:02:33;95797.22;;;6.97;74.99
16094;BME280;8151;47.824;12.092;2022-11-20T04:05:03;95791.31;;;6.95;75.07
16094;BME280;8151;47.824;12.092;2022-11-20T04:07:33;95794.25;;;7.00;75.04
16094;BME280;8151;47.824;12.092;2022-11-20T04:10:02;95791.63;;;7.00;75.01
16094;BME280;8151;47.824;12.092;2022-11-20T04:12:32;95789.84;;;7.00;74.84
16094;BME280;8151;47.824;12.092;2022-11-20T04:15:01;95788.19;;;6.99;75.23
16094;BME280;8151;47.824;12.092;2022-11-20T04:17:29;95789.19;;;6.98;74.97
16094;BME280;8151;47.824;12.092;2022-11-20T04:19:58;95785.03;;;6.96;75.07
16094;BME280;8151;47.824;12.092;2022-11-20T04:22:27;95788.84;;;6.93;75.30
16094;BME280;8151;47.824;12.092;2022-11-20T04:24:56;95792.13;;;6.95;75.43
16094;BME280;8151;47.824;12.092;2022-11-20T04:27:24;95791.97;;;6.97;75.46
16094;BME280;8151;47.824;12.092;2022-11-20T04:29:52;95787.22;;;7.00;75.17
16094;BME280;8151;47.824;12.092;2022-11-20T04:32:21;95793.00;;;7.04;75.16
16094;BME280;8151;47.824;12.092;2022-11-20T04:34:49;95791.16;;;7.04;75.13
16094;BME280;8151;47.824;12.092;2022-11-20T04:37:18;95788.69;;;7.03;75.44
16094;BME280;8151;47.824;12.092;2022-11-20T04:39:47;95787.06;;;7.02;75.18
16094;BME280;8151;47.824;12.092;2022-11-20T04:42:16;95790.66;;;7.01;75.22
16094;BME280;8151;47.824;12.092;2022-11-20T04:44:56;95787.69;;;6.96;75.38
16094;BME280;8151;47.824;12.092;2022-11-20T04:47:25;95786.34;;;6.92;75.22
16094;BME280;8151;47.824;12.092;2022-11-20T04:49:53;95791.09;;;6.88;75.49
16094;BME280;8151;47.824;12.092;2022-11-20T04:52:22;95794.56;;;6.88;75.53
16094;BME280;8151;47.824;12.092;2022-11-20T04:54:52;95784.38;;;6.85;75.25
16094;BME280;8151;47.824;12.092;2022-11-20T04:57:21;95794.72;;;6.87;74.95
16094;BME280;8151;47.824;12.092;2022-11-20T04:59:49;95793.91;;;6.86;75.29
16094;BME280;8151;47.824;12.092;2022-11-20T05:02:18;95793.91;;;6.86;75.14
16094;BME280;8151;47.824;12.092;2022-11-20T05:04:46;95795.88;;;6.84;75.18
16094;BME280;8151;47.824;12.092;2022-11-20T05:07:14;95796.69;;;6.85;75.08
16094;BME280;8151;47.824;12.092;2022-11-20T05:09:43;95792.91;;;6.87;74.86
16094;BME280;8151;47.824;12.092;2022-11-20T05:12:13;95801.63;;;6.88;74.73
16094;BME280;8151;47.824;12.092;2022-11-20T05:14:41;95799.19;;;6.86;75.14
16094;BME280;8151;47.824;12.092;2022-11-20T05:17:10;95800.66;;;6.89;74.87
16094;BME280;8151;47.824;12.092;2022-11-20T05:19:39;95799.66;;;6.90;74.92
16094;BME280;8151;47.824;12.092;2022-11-20T05:22:07;95800.66;;;6.89;74.96
16094;BME280;8151;47.824;12.092;2022-11-20T05:24:36;95808.38;;;6.90;74.77
16094;BME280;8151;47.824;12.092;2022-11-20T05:27:04;95806.28;;;6.94;74.67
16094;BME280;8151;47.824;12.092;2022-11-20T05:29:34;95799.19;;;6.95;75.11
16094;BME280;8151;47.824;12.092;2022-11-20T05:32:03;95802.50;;;6.97;74.82
16094;BME280;8151;47.824;12.092;2022-11-20T05:34:32;95801.19;;;7.01;74.70
16094;BME280;8151;47.824;12.092;2022-11-20T05:37:01;95804.47;;;7.03;74.82
16094;BME280;8151;47.824;12.092;2022-11-20T05:39:30;95796.44;;;7.04;75.00
16094;BME280;8151;47.824;12.092;2022-11-20T05:41:59;95808.09;;;7.02;75.00
16094;BME280;8151;47.824;12.092;2022-11-20T05:44:46;95807.41;;;7.00;74.84
16094;BME280;8151;47.824;12.092;2022-11-20T05:47:14;95806.59;;;6.99;74.97
16094;BME280;8151;47.824;12.092;2022-11-20T05:49:43;95807.25;;;7.01;74.87
16094;BME280;8151;47.824;12.092;2022-11-20T05:52:11;95811.72;;;7.01;74.94
16094;BME280;8151;47.824;12.092;2022-11-20T05:54:40;95815.31;;;7.00;74.83
16094;BME280;8151;47.824;12.092;2022-11-20T05:57:08;95813.00;;;6.97;75.14
16094;BME280;8151;47.824;12.092;2022-11-20T05:59:36;95808.72;;;6.96;74.91
16094;BME280;8151;47.824;12.092;2022-11-20T06:02:06;95814.97;;;6.95;74.93
16094;BME280;8151;47.824;12.092;2022-11-20T06:04:34;95818.56;;;6.94;75.01
16094;BME280;8151;47.824;12.092;2022-11-20T06:07:05;95814.31;;;6.93;74.91
16094;BME280;8151;47.824;12.092;2022-11-20T06:09:33;95814.63;;;6.89;74.84
16094;BME280;8151;47.824;12.092;2022-11-20T06:12:02;95818.41;;;6.87;75.12
16094;BME280;8151;47.824;12.092;2022-11-20T06:14:31;95815.63;;;6.88;75.05
16094;BME280;8151;47.824;12.092;2022-11-20T06:16:59;95810.34;;;6.88;75.26
16094;BME280;8151;47.824;12.092;2022-11-20T06:19:29;95811.84;;;6.91;74.95
16094;BME280;8151;47.824;12.092;2022-11-20T06:21:57;95812.81;;;6.90;74.67
16094;BME280;8151;47.824;12.092;2022-11-20T06:24:25;95815.63;;;6.88;74.97
16094;BME280;8151;47.824;12.092;2022-11-20T06:26:54;95819.22;;;6.87;75.12
16094;BME280;8151;47.824;12.092;2022-11-20T06:29:22;95813.13;;;6.87;74.68
16094;BME280;8151;47.824;12.092;2022-11-20T06:31:56;95822.66;;;6.88;74.74
16094;BME280;8151;47.824;12.092;2022-11-20T06:34:24;95819.22;;;6.87;74.63
16094;BME280;8151;47.824;12.092;2022-11-20T06:36:54;95824.47;;;6.87;74.92
16094;BME280;8151;47.824;12.092;2022-11-20T06:39:22;95828.91;;;6.87;74.80
16094;BME280;8151;47.824;12.092;2022-11-20T06:41:51;95832.38;;;6.87;74.57
16094;BME280;8151;47.824;12.092;2022-11-20T06:44:25;95833.03;;;6.89;74.84
16094;BME280;8151;47.824;12.092;2022-11-20T06:46:53;95832.88;;;6.91;74.72
16094;BME280;8151;47.824;12.092;2022-11-20T06:49:22;95831.22;;;6.90;74.70
16094;BME280;8151;47.824;12.092;2022-11-20T06:51:51;95840.75;;;6.91;74.72
16094;BME280;8151;47.824;12.092;2022-11-20T06:54:20;95838.94;;;6.92;74.68
16094;BME280;8151;47.824;12.092;2022-11-20T06:56:49;95852.09;;;6.92;74.78
16094;BME280;8151;47.824;12.092;2022-11-20T06:59:17;95842.56;;;6.90;74.57
16094;BME280;8151;47.824;12.092;2022-11-20T07:01:46;95848.50;;;6.93;74.57
16094;BME280;8151;47.824;12.092;2022-11-20T07:04:15;95856.06;;;6.96;74.54
16094;BME280;8151;47.824;12.092;2022-11-20T07:06:43;95854.28;;;6.96;74.64
16094;BME280;8151;47.824;12.092;2022-11-20T07:09:11;95855.25;;;6.95;74.77
16094;BME280;8151;47.824;12.092;2022-11-20T07:11:41;95854.44;;;6.95;74.64
16094;BME280;8151;47.824;12.092;2022-11-20T07:14:10;95857.22;;;6.93;74.53
16094;BME280;8151;47.824;12.092;2022-11-20T07:16:38;95860.00;;;6.92;74.94
16094;BME280;8151;47.824;12.092;2022-11-20T07:19:06;95856.69;;;6.89;74.44
16094;BME280;8151;47.824;12.092;2022-11-20T07:21:35;95862.09;;;6.88;74.74
16094;BME280;8151;47.824;12.092;2022-11-20T07:24:03;95869.19;;;6.87;74.88
16094;BME280;8151;47.824;12.092;2022-11-20T07:26:32;95866.69;;;6.86;74.69
16094;BME280;8151;47.824;12.092;2022-11-20T07:29:02;95864.91;;;6.86;74.91
16094;BME280;8151;47.824;12.092;2022-11-20T07:31:30;95872.63;;;6.88;74.97
16094;BME280;8151;47.824;12.092;2022-11-20T07:33:58;95866.41;;;6.89;74.98
16094;BME280;8151;47.824;12.092;2022-11-20T07:36:27;95869.84;;;6.89;74.70
16094;BME280;8151;47.824;12.092;2022-11-20T07:38:55;95877.28;;;6.94;74.49
16094;BME280;8151;47.824;12.092;2022-11-20T07:41:24;95865.09;;;6.93;74.35
16094;BME280;8151;47.824;12.092;2022-11-20T07:43:53;95863.28;;;6.94;74.69
16094;BME280;8151;47.824;12.092;2022-11-20T07:46:22;95866.91;;;6.93;74.63
16094;BME280;8151;47.824;12.092;2022-11-20T07:48:51;95868.03;;;6.90;74.49
16094;BME280;8151;47.824;12.092;2022-11-20T07:51:20;95873.28;;;6.90;74.50
16094;BME280;8151;47.824;12.092;2022-11-20T07:53:52;95871.50;;;6.90;74.57
16094;BME280;8151;47.824;12.092;2022-11-20T07:56:21;95867.56;;;6.95;74.46
16094;BME280;8151;47.824;12.092;2022-11-20T07:58:49;95868.59;;;7.02;74.64
16094;BME280;8151;47.824;12.092;2022-11-20T08:01:17;95869.28;;;7.12;74.31
16094;BME280;8151;47.824;12.092;2022-11-20T08:03:47;95857.97;;;7.20;73.94
16094;BME280;8151;47.824;12.092;2022-11-20T08:06:16;95859.47;;;7.30;74.05
16094;BME280;8151;47.824;12.092;2022-11-20T08:08:45;95873.16;;;7.42;73.96
16094;BME280;8151;47.824;12.092;2022-11-20T08:11:13;95868.75;;;7.51;73.52
16094;BME280;8151;47.824;12.092;2022-11-20T08:14:00;95864.16;;;7.61;73.63
16094;BME280;8151;47.824;12.092;2022-11-20T08:16:41;95872.75;;;7.72;73.08
16094;BME280;8151;47.824;12.092;2022-11-20T08:19:11;95871.75;;;7.81;73.01
16094;BME280;8151;47.824;12.092;2022-11-20T08:21:40;95874.22;;;7.91;72.71
16094;BME280;8151;47.824;12.092;2022-11-20T08:24:09;95862.88;;;7.98;72.38
16094;BME280;8151;47.824;12.092;2022-11-20T08:26:39;95867.47;;;8.04;72.62
16094;BME280;8151;47.824;12.092;2022-11-20T08:29:07;95870.13;;;8.13;72.52
16094;BME280;8151;47.824;12.092;2022-11-20T08:31:36;95868.66;;;8.18;71.93
16094;BME280;8151;47.824;12.092;2022-11-20T08:34:04;95871.28;;;8.26;71.99
16094;BME280;8151;47.824;12.092;2022-11-20T08:36:37;95872.41;;;8.40;71.66
16094;BME280;8151;47.824;12.092;2022-11-20T08:39:05;95870.44;;;8.51;71.09
16094;BME280;8151;47.824;12.092;2022-11-20T08:41:34;95864.50;;;8.65;71.10
16094;BME280;8151;47.824;12.092;2022-11-20T08:44:05;95862.16;;;8.78;70.53
16094;BME280;8151;47.824;12.092;2022-11-20T08:46:36;95859.78;;;8.92;70.28
16094;BME280;8151;47.824;12.092;2022-11-20T08:49:06;95864.22;;;8.99;70.26
16094;BME280;8151;47.824;12.092;2022-11-20T08:51:37;95862.53;;;9.06;69.59
16094;BME280;8151;47.824;12.092;2022-11-20T08:54:06;95856.72;;;9.19;69.21
16094;BME280;8151;47.824;12.092;2022-11-20T08:56:35;95862.72;;;9.36;68.57
16094;BME280;8151;47.824;12.092;2022-11-20T08:59:04;95857.44;;;9.44;68.63
16094;BME280;8151;47.824;12.092;2022-11-20T09:01:52;95855.03;;;9.58;67.71
16094;BME280;8151;47.824;12.092;2022-11-20T09:04:21;95851.81;;;9.71;67.65
16094;BME280;8151;47.824;12.092;2022-11-20T09:06:50;95856.59;;;9.75;66.59
16094;BME280;8151;47.824;12.092;2022-11-20T09:09:19;95854.09;;;9.74;66.63
16094;BME280;8151;47.824;12.092;2022-11-20T09:11:48;95867.59;;;9.79;66.56
16094;BME280;8151;47.824;12.092;2022-11-20T09:14:17;95855.72;;;9.83;66.48
16094;BME280;8151;47.824;12.092;2022-11-20T09:16:46;95863.97;;;9.80;65.88
16094;BME280;8151;47.824;12.092;2022-11-20T09:19:14;95866.13;;;9.76;65.62
16094;BME280;8151;47.824;12.092;2022-11-20T09:22:04;95867.31;;;9.74;65.92
16094;BME280;8151;47.824;12.092;2022-11-20T09:24:32;95867.00;;;9.69;65.28
16094;BME280;8151;47.824;12.092;2022-11-20T09:27:02;95861.13;;;9.58;64.72
16094;BME280;8151;47.824;12.092;2022-11-20T09:29:31;95863.19;;;9.48;64.62
16094;BME280;8151;47.824;12.092;2022-11-20T09:31:59;95858.06;;;9.46;64.21
16094;BME280;8151;47.824;12.092;2022-11-20T09:34:28;95864.97;;;9.48;63.77
16094;BME280;8151;47.824;12.092;2022-11-20T09:36:56;95856.41;;;9.45;63.95
16094;BME280;8151;47.824;12.092;2022-11-20T09:39:31;95848.44;;;9.54;63.60
16094;BME280;8151;47.824;12.092;2022-11-20T09:42:17;95849.88;;;9.64;61.93
16094;BME280;8151;47.824;12.092;2022-11-20T09:45:06;95849.34;;;9.69;62.89
16094;BME280;8151;47.824;12.092;2022-11-20T09:47:52;95862.03;;;9.74;62.45
16094;BME280;8151;47.824;12.092;2022-11-20T09:50:31;95860.91;;;9.68;62.35
16094;BME280;8151;47.824;12.092;2022-11-20T09:53:11;95856.97;;;9.64;62.64
16094;BME280;8151;47.824;12.092;2022-11-20T09:55:42;95859.44;;;9.65;62.51
16094;BME280;8151;47.824;12.092;2022-11-20T09:58:15;95843.59;;;9.65;61.87
16094;BME280;8151;47.824;12.092;2022-11-20T10:00:45;95836.34;;;9.59;62.07
16094;BME280;8151;47.824;12.092;2022-11-20T10:03:19;95854.56;;;9.54;62.19
16094;BME280;8151;47.824;12.092;2022-11-20T10:05:53;95838.78;;;9.46;61.80
16094;BME280;8151;47.824;12.092;2022-11-20T10:08:24;95837.66;;;9.40;61.94
16094;BME280;8151;47.824;12.092;2022-11-20T10:11:04;95841.59;;;9.36;61.30
16094;BME280;8151;47.824;12.092;2022-11-20T10:13:42;95830.59;;;9.33;61.65
16094;BME280;8151;47.824;12.092;2022-11-20T10:16:20;95822.69;;;9.33;60.90
16094;BME280;8151;47.824;12.092;2022-11-20T10:19:01;95823.31;;;9.35;61.12
16094;BME280;8151;47.824;12.092;2022-11-20T10:21:39;95828.59;;;9.35;61.16
16094;BME280;8151;47.824;12.092;2022-11-20T10:24:42;95819.66;;;9.36;59.88
16094;BME280;8151;47.824;12.092;2022-11-20T10:30:14;95820.31;;;9.38;60.41
16094;BME280;8151;47.824;12.092;2022-11-20T10:32:50;95815.03;;;9.38;60.53
16094;BME280;8151;47.824;12.092;2022-11-20T10:35:22;95803.31;;;9.40;59.99
16094;BME280;8151;47.824;12.092;2022-11-20T10:37:55;95807.44;;;9.43;59.98
16094;BME280;8151;47.824;12.092;2022-11-20T10:40:30;95812.16;;;9.48;59.94
16094;BME280;8151;47.824;12.092;2022-11-20T10:43:06;95810.16;;;9.50;59.58
16094;BME280;8151;47.824;12.092;2022-11-20T10:45:45;95802.09;;;9.51;59.44
16094;BME280;8151;47.824;12.092;2022-11-20T10:48:20;95793.81;;;9.54;58.77
16094;BME280;8151;47.824;12.092;2022-11-20T10:51:03;95792.47;;;9.58;58.89
16094;BME280;8151;47.824;12.092;2022-11-20T10:53:54;95783.19;;;9.62;58.38
16094;BME280;8151;47.824;12.092;2022-11-20T10:56:30;95784.31;;;9.68;58.95
16094;BME280;8151;47.824;12.092;2022-11-20T10:59:24;95783.72;;;9.81;57.71
16094;BME280;8151;47.824;12.092;2022-11-20T11:01:56;95786.94;;;9.91;58.08
16094;BME280;8151;47.824;12.092;2022-11-20T11:04:40;95786.94;;;10.06;58.04
16094;BME280;8151;47.824;12.092;2022-11-20T11:07:16;95777.94;;;10.15;57.59
16094;BME280;8151;47.824;12.092;2022-11-20T11:09:48;95773.81;;;10.36;57.43
16094;BME280;8151;47.824;12.092;2022-11-20T11:12:17;95775.00;;;10.48;57.36
16094;BME280;8151;47.824;12.092;2022-11-20T11:14:49;95778.47;;;10.49;57.10
16094;BME280;8151;47.824;12.092;2022-11-20T11:17:21;95766.25;;;10.48;57.23
16094;BME280;8151;47.824;12.092;2022-11-20T11:20:05;95772.81;;;10.52;56.11
16094;BME280;8151;47.824;12.092;2022-11-20T11:22:43;95758.97;;;10.64;56.32
16094;BME280;8151;47.824;12.092;2022-11-20T11:25:25;95768.16;;;10.83;56.26
16094;BME280;8151;47.824;12.092;2022-11-20T11:27:56;95758.59;;;10.82;56.60
16094;BME280;8151;47.824;12.092;2022-11-20T11:30:28;95759.84;;;10.72;56.45
16094;BME280;8151;47.824;12.092;2022-11-20T11:33:08;95757.69;;;10.60;55.83
16094;BME280;8151;47.824;12.092;2022-11-20T11:35:44;95761.25;;;10.53;56.54
16094;BME280;8151;47.824;12.092;2022-11-20T11:38:21;95758.69;;;10.44;56.41
16094;BME280;8151;47.824;12.092;2022-11-20T11:40:53;95756.94;;;10.37;56.10
16094;BME280;8151;47.824;12.092;2022-11-20T11:43:23;95750.38;;;10.33;56.34
16094;BME280;8151;47.824;12.092;2022-11-20T11:46:25;95756.00;;;10.30;55.34
16094;BME280;8151;47.824;12.092;2022-11-20T11:49:00;95746.19;;;10.38;55.64
16094;BME280;8151;47.824;12.092;2022-11-20T11:51:34;95755.47;;;10.64;54.93
16094;BME280;8151;47.824;12.092;2022-11-20T11:54:13;95741.31;;;10.87;54.45
16094;BME280;8151;47.824;12.092;2022-11-20T11:56:43;95744.81;;;11.09;54.48
16094;BME280;8151;47.824;12.092;2022-11-20T11:59:20;95742.41;;;11.29;53.85
16094;BME280;8151;47.824;12.092;2022-11-20T12:01:56;95743.28;;;11.36;54.06
16094;BME280;8151;47.824;12.092;2022-11-20T12:04:39;95747.16;;;11.18;53.46
16094;BME280;8151;47.824;12.092;2022-11-20T12:07:12;95748.78;;;10.98;54.60
16094;BME280;8151;47.824;12.092;2022-11-20T12:10:03;95745.34;;;10.82;54.44
16094;BME280;8151;47.824;12.092;2022-11-20T12:12:36;95744.19;;;10.70;54.42
16094;BME280;8151;47.824;12.092;2022-11-20T12:15:10;95746.44;;;10.58;54.52
16094;BME280;8151;47.824;12.092;2022-11-20T12:17:41;95737.81;;;10.50;54.69
16094;BME280;8151;47.824;12.092;2022-11-20T12:20:13;95737.72;;;10.43;54.09
16094;BME280;8151;47.824;12.092;2022-11-20T12:22:48;95735.16;;;10.35;54.19
16094;BME280;8151;47.824;12.092;2022-11-20T12:25:22;95738.66;;;10.27;54.38
16094;BME280;8151;47.824;12.092;2022-11-20T12:28:26;95734.13;;;10.21;53.90
16094;BME280;8151;47.824;12.092;2022-11-20T12:31:23;95732.66;;;10.18;53.65
16094;BME280;8151;47.824;12.092;2022-11-20T12:34:12;95736.13;;;10.19;54.35
16094;BME280;8151;47.824;12.092;2022-11-20T12:36:49;95719.28;;;10.20;54.47
16094;BME280;8151;47.824;12.092;2022-11-20T12:39:27;95728.47;;;10.24;53.99
16094;BME280;8151;47.824;12.092;2022-11-20T12:42:09;95725.31;;;10.43;53.87
16094;BME280;8151;47.824;12.092;2022-11-20T12:45:24;95715.13;;;10.92;52.49
16094;BME280;8151;47.824;12.092;2022-11-20T12:51:04;95723.34;;;11.83;51.06
16094;BME280;8151;47.824;12.092;2022-11-20T12:53:49;95706.22;;;12.07;50.88
16094;BME280;8151;47.824;12.092;2022-11-20T12:56:28;95702.84;;;12.20;50.76
16094;BME280;8151;47.824;12.092;2022-11-20T12:59:13;95713.34;;;12.07;51.27
16094;BME280;8151;47.824;12.092;2022-11-20T13:01:49;95709.81;;;11.71;52.51
16094;BME280;8151;47.824;12.092;2022-11-20T13:04:40;95706.72;;;11.46;52.31
16094;BME280;8151;47.824;12.092;2022-11-20T13:07:16;95713.84;;;11.24;53.31
16094;BME280;8151;47.824;12.092;2022-11-20T13:09:47;95702.69;;;11.07;53.41
16094;BME280;8151;47.824;12.092;2022-11-20T13:12:22;95698.22;;;10.93;53.46
16094;BME280;8151;47.824;12.092;2022-11-20T13:14:57;95700.38;;;10.82;53.29
16094;BME280;8151;47.824;12.092;2022-11-20T13:17:35;95695.19;;;10.74;53.64
16094;BME280;8151;47.824;12.092;2022-11-20T13:20:06;95696.94;;;10.67;53.55
16094;BME280;8151;47.824;12.092;2022-11-20T13:22:46;95692.00;;;10.64;53.04
16094;BME280;8151;47.824;12.092;2022-11-20T13:25:25;95672.13;;;10.53;52.55
16094;BME280;8151;47.824;12.092;2022-11-20T13:27:54;95695.03;;;10.46;53.23
16094;BME280;8151;47.824;12.092;2022-11-20T13:30:24;95689.47;;;10.41;53.13
16094;BME280;8151;47.824;12.092;2022-11-20T13:32:54;95681.19;;;10.44;52.33
16094;BME280;8151;47.824;12.092;2022-11-20T13:35:27;95688.66;;;10.40;52.78
16094;BME280;8151;47.824;12.092;2022-11-20T13:38:03;95684.56;;;10.38;52.32
16094;BME280;8151;47.824;12.092;2022-11-20T13:40:34;95688.41;;;10.35;52.95
16094;BME280;8151;47.824;12.092;2022-11-20T13:43:28;95685.13;;;10.33;52.71